createdAt,value
2024-03-12T00:03:13.241Z,6.90
2024-03-12T00:08:15.482Z,6.88
2024-03-12T00:13:17.415Z,6.89
2024-03-12T00:18:27.075Z,6.88
2024-03-12T00:23:30.198Z,6.91
2024-03-12T00:28:34.460Z,6.93
2024-03-12T00:33:36.455Z,6.91
2024-03-12T00:38:38.470Z,6.93
2024-03-12T00:43:41.067Z,6.92
2024-03-12T00:48:48.269Z,6.94
2024-03-12T00:53:50.288Z,6.92
2024-03-12T00:58:53.250Z,6.93
2024-03-12T01:03:57.524Z,6.92
2024-03-12T01:09:07.536Z,6.88
2024-03-12T01:14:09.612Z,6.89
2024-03-12T01:19:13.927Z,6.89
2024-03-12T01:24:18.020Z,6.92
2024-03-12T01:29:20.802Z,6.89
2024-03-12T01:34:24.730Z,6.82
2024-03-12T01:39:27.258Z,6.70
2024-03-12T01:44:31.382Z,6.53
2024-03-12T01:49:35.286Z,6.41
2024-03-12T01:54:38.518Z,6.32
2024-03-12T01:59:40.659Z,6.29
2024-03-12T02:04:42.700Z,6.34
2024-03-12T02:09:50.438Z,6.37
2024-03-12T02:14:52.787Z,6.41
2024-03-12T02:19:54.560Z,6.45
2024-03-12T02:24:56.482Z,6.47
2024-03-12T02:29:58.501Z,6.52
2024-03-12T02:35:00.394Z,6.58
2024-03-12T02:40:02.251Z,6.62
2024-03-12T02:45:07.409Z,6.66
2024-03-12T02:50:14.697Z,6.66
2024-03-12T02:55:16.585Z,6.64
2024-03-12T03:00:20.876Z,6.65
2024-03-12T03:05:22.748Z,6.64
2024-03-12T03:10:26.900Z,6.62
2024-03-12T03:15:28.750Z,6.58
2024-03-12T03:20:30.598Z,6.56
2024-03-12T03:25:32.342Z,6.56
2024-03-12T03:30:36.683Z,6.56
2024-03-12T03:35:41.627Z,6.56
2024-03-12T03:40:43.337Z,6.56
2024-03-12T03:45:47.306Z,6.56
2024-03-12T03:50:49.082Z,6.55
2024-03-12T03:55:55.526Z,6.54
2024-03-12T04:00:57.531Z,6.50
2024-03-12T04:05:59.329Z,6.48
2024-03-12T04:11:04.602Z,6.48
2024-03-12T04:16:26.755Z,6.46
2024-03-12T04:21:53.226Z,6.45
2024-03-12T04:27:17.431Z,6.45
2024-03-12T04:32:40.723Z,6.43
2024-03-12T04:37:42.717Z,6.44
2024-03-12T04:42:47.039Z,6.44
2024-03-12T04:47:50.217Z,6.46
2024-03-12T04:52:52.152Z,6.48
2024-03-12T04:57:54.007Z,6.49
2024-03-12T05:02:55.928Z,6.49
2024-03-12T05:08:00.177Z,6.53
2024-03-12T05:13:04.777Z,6.56
2024-03-12T05:18:06.996Z,6.60
2024-03-12T05:23:11.624Z,6.61
2024-03-12T05:28:13.871Z,6.64
2024-03-12T05:33:21.017Z,6.67
2024-03-12T05:38:31.783Z,6.66
2024-03-12T05:43:52.196Z,6.67
2024-03-12T05:48:56.316Z,6.75
2024-03-12T05:54:00.448Z,6.80
2024-03-12T05:59:02.255Z,6.86
2024-03-12T06:04:06.829Z,6.85
2024-03-12T06:09:11.262Z,6.83
2024-03-12T06:14:15.345Z,6.80
2024-03-12T06:19:20.555Z,6.80
2024-03-12T06:24:22.432Z,6.79
2024-03-12T06:29:24.672Z,6.80
2024-03-12T06:34:29.815Z,6.85
2024-03-12T06:39:37.467Z,6.87
2024-03-12T06:44:43.845Z,6.91
2024-03-12T06:49:47.894Z,6.96
2024-03-12T06:54:51.683Z,7.05
2024-03-12T06:59:56.578Z,7.05
2024-03-12T07:05:04.469Z,7.08
2024-03-12T07:10:12.763Z,7.15
2024-03-12T07:15:19.455Z,7.27
2024-03-12T07:20:23.079Z,7.43
2024-03-12T07:25:27.410Z,7.55
2024-03-12T07:30:29.240Z,7.63
2024-03-12T07:35:35.565Z,7.77
2024-03-12T07:40:42.457Z,7.87
2024-03-12T07:45:49.238Z,8.03
2024-03-12T07:50:51.040Z,8.12
2024-03-12T07:55:57.812Z,8.19
2024-03-12T08:01:02.557Z,8.32
2024-03-12T08:06:05.287Z,8.43
2024-03-12T08:11:07.248Z,8.47
2024-03-12T08:16:09.180Z,8.45
2024-03-12T08:21:11.071Z,8.37
2024-03-12T08:26:13.493Z,8.35
2024-03-12T08:31:23.729Z,8.33
2024-03-12T08:36:38.088Z,8.36
2024-03-12T08:41:43.555Z,8.43
2024-03-12T08:46:46.190Z,8.50
2024-03-12T08:51:47.984Z,8.56
2024-03-12T08:56:54.783Z,8.60
2024-03-12T09:02:01.216Z,8.67
2024-03-12T09:07:03.766Z,8.79
2024-03-12T09:12:09.407Z,8.78
2024-03-12T09:17:11.199Z,8.94
2024-03-12T09:22:15.271Z,9.07
2024-03-12T09:27:20.773Z,9.10
2024-03-12T09:32:23.005Z,9.23
2024-03-12T09:37:28.581Z,9.14
2024-03-12T09:42:37.217Z,9.20
2024-03-12T09:47:42.058Z,9.22
2024-03-12T09:52:47.485Z,9.10
2024-03-12T09:57:52.606Z,9.30
2024-03-12T10:02:56.452Z,9.42
2024-03-12T10:08:18.027Z,9.80
2024-03-12T10:13:22.326Z,10.09
2024-03-12T10:18:40.164Z,10.27
2024-03-12T10:23:42.332Z,10.44
2024-03-12T10:28:52.238Z,10.45
2024-03-12T10:33:57.511Z,10.39
2024-03-12T10:38:59.439Z,10.09
2024-03-12T10:44:13.917Z,10.14
2024-03-12T10:49:18.834Z,10.10
2024-03-12T10:54:23.871Z,10.12
2024-03-12T10:59:29.059Z,10.18
2024-03-12T11:04:33.993Z,10.43
2024-03-12T11:09:38.312Z,10.58
2024-03-12T11:14:43.181Z,10.71
2024-03-12T11:19:45.608Z,10.72
2024-03-12T11:24:49.909Z,10.42
2024-03-12T11:30:05.429Z,10.24
2024-03-12T11:35:28.710Z,10.28
2024-03-12T11:40:41.225Z,10.17
2024-03-12T11:45:54.242Z,10.13
2024-03-12T11:50:57.176Z,9.84
2024-03-12T11:56:09.080Z,9.56
2024-03-12T12:01:22.852Z,9.51
2024-03-12T12:06:25.605Z,9.40
2024-03-12T12:11:27.534Z,9.38
2024-03-12T12:16:36.511Z,9.41
2024-03-12T12:21:39.696Z,9.35
2024-03-12T12:26:44.994Z,9.46
2024-03-12T12:31:47.150Z,9.54
2024-03-12T12:36:54.357Z,9.38
2024-03-12T12:41:58.217Z,9.34
2024-03-12T12:46:59.913Z,9.58
2024-03-12T12:52:04.988Z,9.74
2024-03-12T12:57:10.179Z,9.56
2024-03-12T13:02:19.838Z,9.56
2024-03-12T13:07:33.297Z,9.48
2024-03-12T13:12:36.124Z,9.32
2024-03-12T13:17:40.735Z,9.44
2024-03-12T13:22:43.741Z,9.49
2024-03-12T13:27:48.350Z,9.63
2024-03-12T13:32:50.314Z,9.76
2024-03-12T13:37:52.108Z,9.80
2024-03-12T13:42:54.026Z,9.56
2024-03-12T13:47:56.427Z,9.48
2024-03-12T13:53:00.963Z,9.53
2024-03-12T13:58:04.421Z,9.68
2024-03-12T14:03:06.218Z,9.65
2024-03-12T14:08:08.049Z,9.52
2024-03-12T14:13:11.348Z,9.44
2024-03-12T14:18:13.277Z,9.37
2024-03-12T14:23:15.546Z,9.20
2024-03-12T14:28:20.934Z,9.07
2024-03-12T14:33:27.309Z,9.03
2024-03-12T14:38:31.087Z,9.10
2024-03-12T14:43:34.177Z,9.18
2024-03-12T14:48:39.095Z,9.25
2024-03-12T14:53:45.393Z,9.24
2024-03-12T14:58:49.417Z,9.21
2024-03-12T15:03:51.905Z,9.13
2024-03-12T15:08:56.942Z,9.02
2024-03-12T15:13:58.716Z,8.96
2024-03-12T15:19:05.169Z,8.93
2024-03-12T15:24:08.200Z,8.93
2024-03-12T15:29:13.873Z,9.11
2024-03-12T15:34:15.824Z,8.90
2024-03-12T15:39:18.929Z,8.79
2024-03-12T15:44:23.060Z,8.82
2024-03-12T15:49:25.226Z,8.60
2024-03-12T15:54:29.611Z,8.35
2024-03-12T15:59:33.686Z,8.58
2024-03-12T16:04:35.484Z,8.52
2024-03-12T16:09:37.398Z,8.24
2024-03-12T16:14:41.741Z,8.36
2024-03-12T16:19:43.464Z,8.12
2024-03-12T16:24:47.535Z,8.02
2024-03-12T16:29:49.586Z,8.02
2024-03-12T16:34:51.408Z,8.00
2024-03-12T16:39:55.702Z,8.30
2024-03-12T16:45:00.516Z,8.13
2024-03-12T16:50:05.964Z,8.07
2024-03-12T16:55:09.032Z,8.03
2024-03-12T17:00:15.081Z,7.99
2024-03-12T17:05:23.524Z,8.02
2024-03-12T17:10:26.623Z,7.93
2024-03-12T17:15:28.963Z,7.92
2024-03-12T17:20:34.467Z,8.02
2024-03-12T17:25:39.686Z,7.95
2024-03-12T17:30:42.690Z,7.90
2024-03-12T17:35:48.814Z,7.83
2024-03-12T17:40:55.712Z,7.79
2024-03-12T17:45:58.604Z,7.75
2024-03-12T17:51:04.184Z,7.68
2024-03-12T17:56:12.842Z,7.73
2024-03-12T18:01:14.899Z,7.72
2024-03-12T18:06:16.869Z,7.69
2024-03-12T18:11:22.062Z,7.65
2024-03-12T18:16:26.362Z,7.58
2024-03-12T18:21:28.725Z,7.55
2024-03-12T18:26:35.814Z,7.48
2024-03-12T18:31:39.951Z,7.48
2024-03-12T18:36:41.794Z,7.46
2024-03-12T18:41:44.648Z,7.46
2024-03-12T18:46:46.616Z,7.42
2024-03-12T18:51:48.788Z,7.42
2024-03-12T18:56:51.056Z,7.40
2024-03-12T19:02:07.320Z,7.40
2024-03-12T19:07:11.165Z,7.39
2024-03-12T19:12:16.183Z,7.37
2024-03-12T19:17:18.576Z,7.38
2024-03-12T19:22:21.370Z,7.35
2024-03-12T19:27:30.914Z,7.43
2024-03-12T19:32:39.563Z,7.38
2024-03-12T19:37:43.299Z,7.35
2024-03-12T19:42:50.086Z,7.33
2024-03-12T19:47:52.576Z,7.30
2024-03-12T19:52:56.363Z,7.27
2024-03-12T19:58:02.514Z,7.27
2024-03-12T20:03:07.456Z,7.24
2024-03-12T20:08:12.083Z,7.23
2024-03-12T20:13:14.609Z,7.22
2024-03-12T20:18:16.613Z,7.21
2024-03-12T20:23:18.401Z,7.20
2024-03-12T20:28:20.151Z,7.20
2024-03-12T20:33:23.286Z,7.18
2024-03-12T20:38:25.493Z,7.16
2024-03-12T20:43:28.683Z,7.16
2024-03-12T20:48:30.576Z,7.16
2024-03-12T20:53:34.944Z,7.15
2024-03-12T20:58:39.517Z,7.14
2024-03-12T21:03:49.820Z,7.54
2024-03-12T21:08:52.254Z,7.37
2024-03-12T21:13:59.104Z,7.22
2024-03-12T21:19:01.244Z,7.13
2024-03-12T21:24:05.435Z,7.06
2024-03-12T21:29:09.740Z,7.03
2024-03-12T21:34:14.060Z,6.99
2024-03-12T21:39:23.329Z,6.97
2024-03-12T21:44:28.761Z,6.96
2024-03-12T21:49:33.330Z,6.93
2024-03-12T21:54:37.388Z,6.93
2024-03-12T21:59:40.724Z,6.94
2024-03-12T22:04:42.434Z,6.93
2024-03-12T22:09:48.163Z,6.95
2024-03-12T22:14:52.169Z,6.94
2024-03-12T22:19:55.056Z,6.95
2024-03-12T22:24:59.226Z,6.95
2024-03-12T22:30:07.804Z,6.93
2024-03-12T22:35:09.857Z,6.93
2024-03-12T22:40:14.476Z,6.90
2024-03-12T22:45:16.605Z,6.87
2024-03-12T22:50:18.801Z,6.80
2024-03-12T22:55:21.818Z,6.66
2024-03-12T23:00:29.992Z,6.40
2024-03-12T23:05:36.175Z,6.23
2024-03-12T23:10:45.243Z,6.05
2024-03-12T23:15:50.300Z,5.84
2024-03-12T23:20:53.851Z,5.68
2024-03-12T23:25:55.745Z,5.54
2024-03-12T23:31:00.969Z,5.41
2024-03-12T23:36:03.106Z,5.30
2024-03-12T23:41:04.839Z,5.19
2024-03-12T23:46:09.656Z,5.11
2024-03-12T23:51:15.119Z,5.02
2024-03-12T23:56:16.973Z,4.97
